Terminal Aerodrome Forecast
Issued by NWS

Current Version | Previous Version | Text Only | Print | Product List | Glossary Off
Versions: 1 2 3 4 5 6 7 8 9 10 11 12 13 14

026
FTUS41 KPBZ 212331
TAFMGW
TAF
KMGW 212331Z 2200/2224 31006KT P6SM SCT120
     FM220800 01004KT P6SM VCSH OVC050
     FM221200 01005KT P6SM VCSH OVC025
     FM221600 02005KT 5SM -RA OVC015=

USA.gov is the U.S. government's official web portal to all federal, state and local government web resources and services.